NCAR-RAP Real-Time Weather Data

Output produced by METARs form (28 July 2014  12:19 UTC)
found at http://weather.rap.ucar.edu/surface/
 
Conditions at: KSDF observed 28 July 2014  11:56 UTC
Temperature: 18.9°C (66°F)
Dewpoint: 15.6°C (60°F) [RH = 81%]
Pressure (altimeter): 29.94 inches Hg (1014.0 mb)
[Sea-level pressure: 1013.4 mb]
Winds: from the WNW (300 degrees) at 8 MPH (7 knots; 3.6 m/s)
Visibility: 10 or more miles (16+ km)
Ceiling: at least 12,000 feet AGL
Clouds: few clouds at 4000 feet AGL
few clouds at 15000 feet AGL
Present Weather: no significant weather observed at this time
KSDF 281156Z 30007KT 10SM FEW040 FEW150 19/16 A2994 RMK AO2 SLP134 70025 T01890156 10222 20183 53017